createdAt,value
2018-06-28T00:00:25.161Z,18.11
2018-06-28T00:02:55.279Z,18.02
2018-06-28T00:05:25.724Z,17.97
2018-06-28T00:09:03.320Z,17.94
2018-06-28T00:11:33.630Z,17.95
2018-06-28T00:14:03.797Z,17.77
2018-06-28T00:16:33.944Z,17.68
2018-06-28T00:19:03.929Z,17.65
2018-06-28T00:21:38.829Z,17.70
2018-06-28T00:24:08.863Z,17.73
2018-06-28T00:26:38.735Z,17.75
2018-06-28T00:29:08.720Z,17.78
2018-06-28T00:31:40.191Z,17.91
2018-06-28T00:34:10.202Z,17.87
2018-06-28T00:36:49.598Z,17.81
2018-06-28T00:39:21.654Z,17.66
2018-06-28T00:41:51.657Z,17.59
2018-06-28T00:44:21.653Z,17.62
2018-06-28T00:46:51.854Z,17.76
2018-06-28T00:49:29.020Z,17.93
2018-06-28T00:52:00.918Z,17.87
2018-06-28T00:54:31.039Z,17.84
2018-06-28T00:57:07.806Z,17.75
2018-06-28T00:59:37.795Z,17.67
2018-06-28T01:02:07.753Z,17.67
2018-06-28T01:04:43.087Z,17.61
2018-06-28T01:07:13.273Z,17.52
2018-06-28T01:09:43.113Z,17.45
2018-06-28T01:12:13.023Z,17.49
2018-06-28T01:14:42.921Z,17.60
2018-06-28T01:17:13.250Z,17.61
2018-06-28T01:19:43.092Z,17.82
2018-06-28T01:22:12.842Z,17.99
2018-06-28T01:24:42.755Z,18.02
2018-06-28T01:27:12.603Z,18.06
2018-06-28T01:29:42.479Z,17.92
2018-06-28T01:32:12.481Z,17.83
2018-06-28T01:34:42.999Z,17.81
2018-06-28T01:37:13.621Z,17.81
2018-06-28T01:39:43.513Z,17.76
2018-06-28T01:42:29.990Z,17.66
2018-06-28T01:45:00.000Z,17.61
2018-06-28T01:47:29.809Z,17.69
2018-06-28T01:52:53.722Z,17.54
2018-06-28T01:55:43.966Z,17.50
2018-06-28T01:58:21.156Z,17.65
2018-06-28T02:00:57.549Z,17.60
2018-06-28T02:03:27.462Z,17.43
2018-06-28T02:05:59.036Z,17.25
2018-06-28T02:08:47.338Z,17.09
2018-06-28T02:11:17.401Z,16.98
2018-06-28T02:13:47.235Z,16.87
2018-06-28T02:16:36.051Z,16.76
2018-06-28T02:19:10.490Z,16.64
2018-06-28T02:21:40.415Z,16.61
2018-06-28T02:24:44.426Z,16.57
2018-06-28T02:33:44.862Z,16.38
2018-06-28T02:36:14.631Z,16.17
2018-06-28T02:38:44.521Z,16.19
2018-06-28T02:41:15.866Z,16.18
2018-06-28T02:43:45.678Z,16.16
2018-06-28T02:46:16.139Z,16.10
2018-06-28T10:45:31.281Z,28.73
2018-06-28T10:48:04.413Z,28.42
2018-06-28T10:50:34.919Z,26.92
2018-06-28T10:53:05.402Z,27.50
2018-06-28T10:55:35.984Z,26.99
2018-06-28T10:58:06.166Z,27.65
2018-06-28T11:00:36.363Z,28.01
2018-06-28T11:06:06.011Z,28.62
2018-06-28T11:08:36.167Z,29.48
2018-06-28T11:11:07.806Z,29.50
2018-06-28T11:13:38.613Z,29.45
2018-06-28T11:16:09.991Z,29.31
2018-06-28T11:18:40.604Z,28.45
2018-06-28T11:21:11.076Z,27.92
2018-06-28T11:23:41.681Z,27.77
2018-06-28T11:26:12.547Z,28.42
2018-06-28T11:28:43.621Z,27.85
2018-06-28T11:31:13.500Z,28.77
2018-06-28T11:33:43.828Z,29.20
2018-06-28T11:36:13.683Z,28.78
2018-06-28T11:38:43.511Z,29.48
2018-06-28T11:41:13.672Z,30.83
2018-06-28T11:43:44.716Z,31.61
2018-06-28T11:46:14.658Z,31.87
2018-06-28T11:48:44.448Z,30.62
2018-06-28T11:51:16.246Z,31.13
2018-06-28T11:53:46.088Z,31.32
2018-06-28T11:56:15.956Z,31.08
2018-06-28T11:58:49.696Z,31.56
2018-06-28T12:01:19.770Z,30.93
2018-06-28T12:03:49.627Z,30.77
2018-06-28T12:06:19.700Z,30.46
2018-06-28T12:08:49.556Z,30.09
2018-06-28T12:11:19.819Z,30.06
2018-06-28T12:13:49.736Z,30.00
2018-06-28T12:16:19.643Z,29.57
2018-06-28T12:18:49.518Z,28.41
2018-06-28T12:21:19.487Z,28.44
2018-06-28T12:23:49.398Z,29.28
2018-06-28T12:26:25.638Z,30.17
2018-06-28T12:28:55.478Z,30.73
2018-06-28T12:31:25.823Z,30.68
2018-06-28T12:33:59.996Z,31.56
2018-06-28T12:36:34.547Z,31.32
2018-06-28T12:39:05.357Z,31.72
2018-06-28T12:41:35.157Z,32.08
2018-06-28T12:44:08.114Z,32.00
2018-06-28T12:46:46.135Z,32.24
2018-06-28T12:49:17.590Z,32.00
2018-06-28T12:52:01.566Z,31.46
2018-06-28T12:54:32.247Z,31.96
2018-06-28T12:57:05.094Z,31.83
2018-06-28T12:59:37.305Z,31.60
2018-06-28T13:02:07.571Z,31.15
2018-06-28T13:04:37.444Z,29.82
2018-06-28T13:07:08.376Z,29.29
2018-06-28T13:09:41.888Z,29.11
2018-06-28T13:12:12.769Z,29.18
2018-06-28T13:14:46.446Z,29.31
2018-06-28T13:17:16.279Z,28.88
2018-06-28T13:19:53.896Z,28.02
2018-06-28T13:22:24.338Z,27.60
2018-06-28T13:24:55.311Z,28.00
2018-06-28T13:27:28.031Z,28.66
2018-06-28T13:29:59.971Z,29.56
2018-06-28T13:32:30.122Z,29.93
2018-06-28T13:35:00.353Z,29.97
2018-06-28T13:37:32.033Z,29.76
2018-06-28T13:40:02.549Z,29.02
2018-06-28T13:42:33.061Z,28.68
2018-06-28T13:45:03.316Z,29.13
2018-06-28T13:47:34.736Z,28.98
2018-06-28T13:50:05.112Z,29.53
2018-06-28T13:52:35.140Z,29.47
2018-06-28T13:55:05.689Z,29.70
2018-06-28T13:57:36.646Z,29.20
2018-06-28T14:00:08.336Z,28.52
2018-06-28T14:02:39.386Z,28.68
2018-06-28T14:05:13.742Z,28.80
2018-06-28T14:07:45.863Z,29.12
2018-06-28T14:10:16.840Z,29.41
2018-06-28T14:12:46.882Z,29.86
2018-06-28T14:15:22.590Z,29.67
2018-06-28T14:17:54.005Z,29.70
2018-06-28T14:20:26.585Z,29.67
2018-06-28T14:22:56.450Z,29.40
2018-06-28T14:25:28.316Z,29.40
2018-06-28T14:27:59.982Z,29.63
2018-06-28T14:30:32.483Z,29.96
2018-06-28T14:33:04.224Z,29.41
2018-06-28T14:35:34.797Z,29.54
2018-06-28T14:38:04.842Z,28.33
2018-06-28T14:40:34.986Z,27.83
2018-06-28T14:43:04.837Z,27.78
2018-06-28T14:45:34.895Z,27.15
2018-06-28T14:48:04.780Z,27.06
2018-06-28T14:50:34.942Z,26.96
2018-06-28T14:53:04.883Z,26.26
2018-06-28T14:55:34.924Z,26.51
2018-06-28T14:58:04.859Z,26.64
2018-06-28T15:00:35.022Z,26.87
2018-06-28T15:03:05.139Z,27.06
2018-06-28T15:05:35.156Z,27.32
2018-06-28T15:08:04.990Z,27.19
2018-06-28T15:10:35.120Z,27.16
2018-06-28T15:13:04.923Z,27.19
2018-06-28T15:15:35.732Z,27.12
2018-06-28T15:18:05.879Z,27.13
2018-06-28T15:20:35.733Z,27.17
2018-06-28T15:23:05.658Z,27.20
2018-06-28T15:25:36.957Z,27.05
2018-06-28T15:28:06.759Z,27.00
2018-06-28T15:30:36.746Z,26.78
2018-06-28T15:33:06.629Z,26.85
2018-06-28T15:35:37.394Z,26.90
2018-06-28T15:38:07.427Z,26.95
2018-06-28T15:40:37.259Z,27.03
2018-06-28T15:43:07.053Z,27.06
2018-06-28T15:45:36.881Z,26.99
2018-06-28T15:48:07.216Z,26.87
2018-06-28T15:50:37.250Z,26.73
2018-06-28T15:53:07.159Z,26.32
2018-06-28T15:55:37.049Z,26.07
2018-06-28T15:58:06.947Z,25.82
2018-06-28T16:00:37.716Z,25.61
2018-06-28T16:03:07.651Z,25.41
2018-06-28T16:05:37.746Z,25.32
2018-06-28T16:08:07.858Z,25.34
2018-06-28T16:10:37.746Z,25.27
2018-06-28T16:13:11.417Z,25.21
2018-06-28T16:15:45.245Z,24.99
2018-06-28T16:18:24.181Z,24.76
2018-06-28T16:20:57.539Z,24.69
2018-06-28T16:23:33.209Z,24.64
2018-06-28T16:26:05.539Z,24.62
2018-06-28T16:28:44.027Z,24.76
2018-06-28T16:31:18.336Z,25.01
2018-06-28T16:33:49.820Z,25.22
2018-06-28T16:36:21.745Z,25.42
2018-06-28T16:38:57.569Z,25.56
2018-06-28T16:41:27.599Z,25.48
2018-06-28T16:43:57.464Z,25.44
2018-06-28T16:46:27.473Z,25.35
2018-06-28T16:48:57.412Z,25.29
2018-06-28T16:51:27.402Z,25.22
2018-06-28T16:53:57.290Z,25.11
2018-06-28T16:56:27.422Z,25.08
2018-06-28T16:58:57.350Z,24.89
2018-06-28T17:01:27.405Z,24.65
2018-06-28T17:03:57.323Z,24.51
2018-06-28T17:06:27.395Z,24.29
2018-06-28T17:08:57.367Z,24.14
2018-06-28T17:11:27.354Z,24.16
2018-06-28T17:13:57.257Z,24.03
2018-06-28T17:16:27.216Z,23.74
2018-06-28T17:18:57.207Z,23.56
2018-06-28T17:21:27.370Z,23.48
2018-06-28T17:23:57.211Z,23.34
2018-06-28T17:26:27.078Z,23.29
2018-06-28T17:28:56.929Z,23.21
2018-06-28T17:31:27.113Z,23.14
2018-06-28T17:33:57.126Z,23.00
2018-06-28T17:36:27.090Z,23.09
2018-06-28T17:38:57.554Z,23.04
2018-06-28T17:41:28.193Z,23.06
2018-06-28T17:43:58.444Z,22.90
2018-06-28T17:46:28.690Z,22.81
2018-06-28T17:48:58.739Z,22.76
2018-06-28T17:51:29.305Z,22.74
2018-06-28T17:53:59.345Z,22.63
2018-06-28T17:56:29.232Z,22.51
2018-06-28T17:58:59.302Z,22.48
2018-06-28T18:01:29.548Z,22.43
2018-06-28T18:03:59.652Z,22.39
2018-06-28T18:06:29.772Z,22.36
2018-06-28T18:08:59.946Z,22.32
2018-06-28T18:11:29.926Z,22.28
2018-06-28T18:14:00.094Z,22.30
2018-06-28T18:16:30.008Z,22.34
2018-06-28T18:18:59.978Z,22.39
2018-06-28T18:21:30.133Z,22.37
2018-06-28T18:24:00.663Z,22.29
2018-06-28T18:26:30.706Z,22.33
2018-06-28T18:29:00.514Z,22.31
2018-06-28T18:31:30.496Z,22.28
2018-06-28T18:34:00.798Z,22.22
2018-06-28T18:36:30.957Z,22.23
2018-06-28T18:39:00.846Z,22.20
2018-06-28T18:41:30.697Z,22.18
2018-06-28T18:44:00.699Z,22.16
2018-06-28T18:46:30.793Z,22.09
2018-06-28T18:49:00.809Z,22.04
2018-06-28T18:51:30.838Z,21.99
2018-06-28T18:54:01.101Z,22.03
2018-06-28T18:56:31.643Z,21.99
2018-06-28T18:59:01.738Z,21.94
2018-06-28T19:01:33.229Z,21.96
2018-06-28T19:04:03.218Z,21.94
2018-06-28T19:06:33.510Z,21.93
2018-06-28T19:09:03.782Z,21.94
2018-06-28T19:11:35.142Z,21.97
2018-06-28T19:14:11.231Z,21.94
2018-06-28T19:16:46.121Z,21.91
2018-06-28T19:19:16.128Z,21.86
2018-06-28T19:21:51.330Z,21.79
2018-06-28T19:32:49.276Z,21.74
2018-06-28T19:35:20.481Z,21.66
2018-06-28T19:37:54.661Z,21.61
2018-06-28T19:40:30.119Z,21.52
2018-06-28T19:43:02.836Z,21.40
2018-06-28T19:52:56.101Z,21.31
2018-06-28T19:55:26.357Z,21.37
2018-06-28T19:57:56.604Z,21.36
2018-06-28T20:00:38.565Z,21.36
2018-06-28T20:03:29.642Z,21.38
2018-06-28T20:06:00.403Z,21.29
2018-06-28T20:08:31.269Z,21.26
2018-06-28T20:11:05.007Z,21.17
2018-06-28T20:13:41.507Z,21.13
2018-06-28T20:16:16.916Z,21.07
2018-06-28T20:18:51.815Z,20.93
2018-06-28T20:21:21.919Z,20.85
2018-06-28T20:23:51.884Z,20.80
2018-06-28T20:26:26.893Z,20.74
2018-06-28T20:29:01.893Z,20.78
2018-06-28T20:31:37.847Z,20.69
2018-06-28T20:34:11.264Z,20.64
2018-06-28T20:36:47.305Z,20.61
2018-06-28T20:39:27.178Z,20.64
2018-06-28T20:41:57.931Z,20.65
2018-06-28T20:44:28.346Z,20.44
2018-06-28T20:46:58.391Z,20.42
2018-06-28T20:49:28.524Z,20.39
2018-06-28T20:52:30.915Z,20.30
2018-06-28T20:55:01.813Z,20.46
2018-06-28T20:57:32.053Z,20.45
2018-06-28T21:00:02.098Z,20.51
2018-06-28T21:02:32.275Z,20.29
2018-06-28T21:05:02.321Z,20.14
2018-06-28T21:07:32.828Z,20.09
2018-06-28T21:10:03.658Z,20.23
2018-06-28T21:12:34.482Z,20.25
2018-06-28T21:15:04.653Z,20.17
2018-06-28T21:17:35.493Z,20.12
2018-06-28T21:20:05.962Z,20.12
2018-06-28T21:22:35.758Z,20.11
2018-06-28T21:25:05.961Z,20.37
2018-06-28T21:27:36.341Z,20.31
2018-06-28T21:30:07.077Z,20.17
2018-06-28T21:32:37.335Z,20.07
2018-06-28T21:35:07.606Z,20.01
2018-06-28T21:37:37.744Z,20.00
2018-06-28T21:40:08.363Z,19.96
2018-06-28T21:42:42.417Z,19.92
2018-06-28T21:45:12.818Z,19.88
2018-06-28T21:47:43.210Z,19.85
2018-06-28T21:50:13.341Z,19.86
2018-06-28T21:52:54.042Z,19.83
2018-06-28T21:55:25.408Z,19.82
2018-06-28T21:59:03.627Z,19.80
2018-06-28T22:01:34.204Z,19.80
2018-06-28T22:04:04.437Z,19.79
2018-06-28T22:06:35.287Z,19.81
2018-06-28T22:09:06.691Z,19.83
2018-06-28T22:11:39.898Z,19.86
2018-06-28T22:14:10.300Z,19.80
2018-06-28T22:16:40.736Z,19.78
2018-06-28T22:19:10.741Z,19.79
2018-06-28T22:24:53.045Z,19.80
2018-06-28T22:27:23.268Z,19.73
2018-06-28T22:29:54.101Z,19.68
2018-06-28T22:32:24.535Z,19.57
2018-06-28T22:34:54.543Z,19.49
2018-06-28T22:37:24.905Z,19.36
2018-06-28T22:39:56.903Z,19.27
2018-06-28T22:42:26.784Z,19.21
2018-06-28T22:44:58.314Z,19.26
2018-06-28T22:47:30.206Z,19.27
2018-06-28T22:50:03.063Z,19.18
2018-06-28T22:52:33.932Z,19.08
2018-06-28T22:55:04.119Z,18.88
2018-06-28T22:57:36.207Z,18.79
2018-06-28T23:00:07.317Z,18.93
2018-06-28T23:02:40.442Z,18.88
2018-06-28T23:05:17.835Z,18.90
2018-06-28T23:07:51.096Z,18.86
2018-06-28T23:10:31.683Z,18.79
2018-06-28T23:13:02.999Z,18.76
2018-06-28T23:15:34.421Z,18.80
2018-06-28T23:18:04.389Z,18.92
2018-06-28T23:20:38.646Z,18.70
2018-06-28T23:23:08.649Z,18.57
2018-06-28T23:25:38.962Z,18.43
2018-06-28T23:28:08.969Z,18.29
2018-06-28T23:30:38.878Z,18.22
2018-06-28T23:33:08.948Z,18.26
2018-06-28T23:35:48.995Z,18.19
2018-06-28T23:38:23.930Z,18.12
2018-06-28T23:40:54.111Z,18.07
2018-06-28T23:43:23.963Z,18.07
2018-06-28T23:45:53.790Z,18.04
2018-06-28T23:48:23.771Z,18.07
2018-06-28T23:50:54.075Z,18.08
2018-06-28T23:53:38.032Z,18.09
2018-06-28T23:56:10.798Z,17.98
2018-06-28T23:58:43.150Z,17.91
